This is the latest recevied weather packets stored in our database for station/object N0HEQ. If no packets are shown the sender has not sent any weather packets the latest 10 day(s).
| Time | Temp. | Humidity | Pressure | Rain* | Wind** | Luminosity | Snow |
|---|---|---|---|---|---|---|---|
| 1777696497 | 7.78° C | 43% | 1024.3 hPa | 0 mm | - | 0 W/m² | - |
| 1777696196 | 7.78° C | 39% | 1024.3 hPa | 0 mm | - | 0 W/m² | - |
| 1777695893 | 8.33° C | 38% | 1024.5 hPa | 0 mm | - | 0 W/m² | - |
| 1777695591 | 8.89° C | 36% | 1024.5 hPa | 0 mm | - | 0 W/m² | - |
| 1777695289 | 8.89° C | 35% | 1024 hPa | 0 mm | - | 0 W/m² | - |
| 1777694985 | 9.44° C | 34% | 1024.1 hPa | 0 mm | - | 0 W/m² | - |
| 1777694682 | 10° C | 33% | 1023.9 hPa | 0 mm | - | 0 W/m² | - |
| 1777694378 | 10° C | 33% | 1024 hPa | 0 mm | - | 0 W/m² | - |
| 1777694074 | 10° C | 32% | 1024.1 hPa | 0 mm | - | 0 W/m² | - |
| 1777693772 | 9.44° C | 34% | 1024 hPa | 0 mm | - | 0 W/m² | - |
| 1777693471 | 8.89° C | 38% | 1023.8 hPa | 0 mm | - | 0 W/m² | - |
| 1777693169 | 8.89° C | 36% | 1023.8 hPa | 0 mm | - | 0 W/m² | - |
| 1777692866 | 9.44° C | 33% | 1023.5 hPa | 0 mm | - | 0 W/m² | - |
| 1777692562 | 8.89° C | 35% | 1023.5 hPa | 0 mm | - | 0 W/m² | - |
| 1777692259 | 8.89° C | 35% | 1023.4 hPa | 0 mm | - | 0 W/m² | - |
| 1777691956 | 8.89° C | 35% | 1023.3 hPa | 0 mm | - | 0 W/m² | - |
| 1777691655 | 8.33° C | 34% | 1023.2 hPa | 0 mm | - | 0 W/m² | - |
| 1777691353 | 8.33° C | 33% | 1023.2 hPa | 0 mm | - | 0 W/m² | - |
| 1777691050 | 8.89° C | 33% | 1023.3 hPa | 0 mm | - | 0 W/m² | - |
| 1777690749 | 8.89° C | 35% | 1022.8 hPa | 0 mm | - | 0 W/m² | - |
| 1777690445 | 8.89° C | 32% | 1022.7 hPa | 0 mm | - | 0 W/m² | - |
| 1777690143 | 8.89° C | 32% | 1022.8 hPa | 0 mm | - | 0 W/m² | - |
| 1777689841 | 9.44° C | 29% | 1022.5 hPa | 0 mm | - | 0 W/m² | - |
| 1777689538 | 10° C | 29% | 1022.5 hPa | 0 mm | - | 0 W/m² | - |
| 1777689235 | 10° C | 28% | 1022.7 hPa | 0 mm | - | 0 W/m² | - |
* Rain latest hour (hover to see other rain measurements)
** Current wind speed in m/s (hover to see current wind gust speed)